Time;durP1;ratioP1;P1;durP2;ratioP2;P2;SDS_P1;SDS_P2;PMS_P1;PMS_P2;Temp;Humidity;BMP_temperature;BMP_pressure;BME280_temperature;BME280_humidity;BME280_pressure;Samples;Min_cycle;Max_cycle;Signal;HPM_P1;HPM_P2
2022/08/05 00:02:02;;;;;;;10.93;1.33;;;;;;;12.35;100.00;98607.78;5074315;28;20085;-91
2022/08/05 00:04:28;;;;;;;6.90;1.27;;;;;;;12.47;100.00;98604.94;5082453;28;20039;-91
2022/08/05 00:06:53;;;;;;;7.72;1.17;;;;;;;12.48;100.00;98598.78;5071432;28;20028;-92
2022/08/05 00:09:22;;;;;;;10.07;1.58;;;;;;;12.43;100.00;98613.72;5067436;28;20032;-92
2022/08/05 00:11:54;;;;;;;8.23;1.23;;;;;;;12.65;100.00;98608.94;5067641;28;20039;-91
2022/08/05 00:14:23;;;;;;;8.10;1.17;;;;;;;12.66;100.00;98604.56;5062114;28;20048;-91
2022/08/05 00:16:48;;;;;;;6.30;1.20;;;;;;;12.56;100.00;98593.41;5061710;28;20032;-91
2022/08/05 00:19:17;;;;;;;7.05;1.30;;;;;;;12.52;100.00;98589.13;5065652;28;20073;-92
2022/08/05 00:21:42;;;;;;;5.82;0.90;;;;;;;12.54;100.00;98585.59;5062701;28;20025;-91
2022/08/05 00:24:08;;;;;;;6.75;1.20;;;;;;;12.54;100.00;98582.09;5060001;28;20036;-91
2022/08/05 00:26:33;;;;;;;9.98;1.40;;;;;;;12.51;100.00;98590.91;5060109;28;20054;-92
2022/08/05 00:28:59;;;;;;;6.03;1.20;;;;;;;12.55;100.00;98579.47;5069930;28;20218;-91
2022/08/05 00:31:25;;;;;;;12.07;1.27;;;;;;;12.67;100.00;98580.13;5064049;28;20020;-92
2022/08/05 00:33:51;;;;;;;6.05;1.10;;;;;;;12.52;100.00;98595.22;5071706;28;20101;-92
2022/08/05 00:36:16;;;;;;;7.00;1.20;;;;;;;12.57;100.00;98609.09;5062127;28;20476;-93
2022/08/05 00:38:43;;;;;;;10.57;1.30;;;;;;;12.68;100.00;98598.41;5064223;28;20025;-90
2022/08/05 00:41:08;;;;;;;10.40;1.30;;;;;;;12.51;100.00;98600.50;5065409;28;20028;-93
2022/08/05 00:43:35;;;;;;;7.03;1.00;;;;;;;12.63;100.00;98593.25;5062082;28;20423;-91
2022/08/05 00:46:01;;;;;;;6.10;1.30;;;;;;;12.53;100.00;98596.94;5064239;28;20955;-91
2022/08/05 00:48:26;;;;;;;6.22;1.23;;;;;;;12.52;100.00;98599.59;5059495;28;20029;-91
2022/08/05 00:50:52;;;;;;;7.70;1.17;;;;;;;12.54;100.00;98595.19;5061348;28;20032;-93
2022/08/05 00:53:20;;;;;;;7.72;0.93;;;;;;;12.51;100.00;98600.50;5064201;28;20024;-92
2022/08/05 00:55:47;;;;;;;9.05;1.42;;;;;;;12.57;100.00;98597.78;5058609;28;20052;-93
2022/08/05 00:58:17;;;;;;;9.82;1.30;;;;;;;12.71;100.00;98603.56;5063760;28;20021;-91
2022/08/05 01:00:43;;;;;;;9.43;1.77;;;;;;;12.50;100.00;98606.59;5058085;28;20910;-91
2022/08/05 01:03:10;;;;;;;9.07;1.23;;;;;;;12.56;100.00;98607.34;5078506;28;20024;-92
2022/08/05 01:05:35;;;;;;;6.28;1.08;;;;;;;12.44;100.00;98602.34;5063033;28;20039;-91
2022/08/05 01:08:02;;;;;;;6.47;1.40;;;;;;;12.55;100.00;98600.38;5065758;28;20115;-92
2022/08/05 01:10:34;;;;;;;8.27;1.38;;;;;;;12.50;100.00;98599.63;5060700;28;20389;-93
2022/08/05 01:13:09;;;;;;;5.25;1.38;;;;;;;12.44;100.00;98605.84;5058375;28;20032;-91
2022/08/05 01:15:41;;;;;;;9.63;1.20;;;;;;;12.34;100.00;98608.66;5076796;28;20484;-91
2022/08/05 01:18:18;;;;;;;4.25;1.10;;;;;;;12.45;100.00;98606.69;5064367;28;20064;-91
2022/08/05 01:21:01;;;;;;;6.20;1.10;;;;;;;12.39;100.00;98604.22;5064678;28;20032;-92
2022/08/05 01:23:57;;;;;;;7.47;1.58;;;;;;;12.53;100.00;98606.56;5093623;27;20040;-92
2022/08/05 01:26:43;;;;;;;8.75;1.20;;;;;;;12.54;100.00;98605.66;5060614;28;20024;-91
2022/08/05 01:29:25;;;;;;;9.52;1.35;;;;;;;12.54;100.00;98598.69;5091811;27;20449;-92
2022/08/05 01:31:53;;;;;;;6.10;1.00;;;;;;;12.63;100.00;98602.88;5071571;28;20076;-91
2022/08/05 01:34:24;;;;;;;7.60;1.33;;;;;;;12.75;100.00;98596.53;5060006;28;20036;-91
2022/08/05 01:36:57;;;;;;;7.40;1.25;;;;;;;12.62;100.00;98604.63;5059578;28;20040;-92
2022/08/05 01:39:25;;;;;;;8.02;1.25;;;;;;;12.60;100.00;98598.56;5063893;28;20021;-91
2022/08/05 01:41:53;;;;;;;7.93;1.25;;;;;;;12.65;100.00;98606.31;5064438;28;20158;-92
2022/08/05 01:44:19;;;;;;;7.88;1.30;;;;;;;12.61;100.00;98596.81;5067077;28;20451;-91
2022/08/05 01:46:46;;;;;;;10.93;1.75;;;;;;;12.64;100.00;98592.38;5061199;28;20032;-93
2022/08/05 01:49:22;;;;;;;7.18;1.30;;;;;;;12.65;100.00;98595.88;5066449;28;20028;-92
2022/08/05 01:51:49;;;;;;;10.43;1.45;;;;;;;12.51;100.00;98598.75;5061259;28;20028;-91
2022/08/05 01:54:16;;;;;;;5.20;1.00;;;;;;;12.59;100.00;98603.81;5072133;28;20114;-92
2022/08/05 01:56:44;;;;;;;9.02;1.27;;;;;;;12.60;100.00;98601.16;5059462;28;20028;-93
2022/08/05 01:59:14;;;;;;;7.35;1.23;;;;;;;12.47;100.00;98602.31;5066018;28;20032;-91
2022/08/05 02:01:40;;;;;;;6.97;1.38;;;;;;;12.62;100.00;98601.13;5065259;28;20170;-90
2022/08/05 02:04:08;;;;;;;11.93;1.58;;;;;;;12.49;100.00;98599.66;5070359;28;20537;-91
2022/08/05 02:06:35;;;;;;;4.97;1.25;;;;;;;12.60;100.00;98589.84;5071107;28;20116;-90
2022/08/05 02:09:00;;;;;;;7.50;1.25;;;;;;;12.70;100.00;98585.28;5062419;28;20033;-92
2022/08/05 02:11:41;;;;;;;5.75;1.25;;;;;;;12.46;100.00;98590.97;5104620;27;20028;-91
2022/08/05 02:14:39;;;;;;;7.00;1.10;;;;;;;12.63;100.00;98585.41;5081003;28;20442;-91
2022/08/05 02:17:11;;;;;;;6.18;1.13;;;;;;;12.46;100.00;98598.81;5065382;28;20055;-91
2022/08/05 02:19:44;;;;;;;7.93;1.15;;;;;;;12.53;100.00;98596.09;5074464;28;20081;-91
2022/08/05 02:22:25;;;;;;;8.00;1.00;;;;;;;12.48;100.00;98596.16;5071077;28;20055;-93
2022/08/05 02:24:54;;;;;;;8.82;1.38;;;;;;;12.40;100.00;98598.06;5065853;28;20088;-90
2022/08/05 02:27:22;;;;;;;6.20;1.30;;;;;;;12.48;100.00;98598.78;5067844;28;20029;-92
2022/08/05 02:29:50;;;;;;;7.07;1.40;;;;;;;12.52;100.00;98594.38;5066347;28;20054;-91
2022/08/05 02:32:20;;;;;;;7.15;1.27;;;;;;;12.43;100.00;98593.66;5067716;28;20121;-93
2022/08/05 02:34:45;;;;;;;10.25;1.60;;;;;;;12.45;100.00;98593.63;5066840;28;20040;-91
2022/08/05 02:37:12;;;;;;;8.32;1.38;;;;;;;12.35;100.00;98599.94;5070144;28;20506;-91
2022/08/05 02:39:40;;;;;;;6.18;1.20;;;;;;;12.48;100.00;98597.94;5062521;28;20020;-92
2022/08/05 02:42:08;;;;;;;9.80;1.40;;;;;;;12.43;100.00;98600.66;5065567;28;20051;-91
2022/08/05 02:44:37;;;;;;;10.32;1.42;;;;;;;12.41;100.00;98599.81;5075142;28;20039;-91
2022/08/05 02:47:06;;;;;;;8.57;1.45;;;;;;;12.34;100.00;98601.66;5064807;28;20031;-91
2022/08/05 02:49:35;;;;;;;5.60;1.15;;;;;;;12.20;100.00;98608.91;5066845;28;20032;-91
2022/08/05 02:52:04;;;;;;;8.93;1.58;;;;;;;12.12;100.00;98609.91;5069510;28;20130;-92
2022/08/05 02:54:32;;;;;;;8.43;1.52;;;;;;;12.11;100.00;98604.72;5063318;28;20129;-91
2022/08/05 02:56:58;;;;;;;10.50;1.52;;;;;;;12.11;100.00;98607.34;5064458;28;20020;-91
2022/08/05 02:59:26;;;;;;;6.28;1.30;;;;;;;12.27;100.00;98594.84;5063497;28;20496;-91
2022/08/05 03:01:59;;;;;;;7.95;1.17;;;;;;;12.35;100.00;98603.41;5065960;28;20036;-91
2022/08/05 03:04:25;;;;;;;7.00;1.20;;;;;;;12.24;100.00;98603.59;5063146;28;20070;-90
2022/08/05 03:06:52;;;;;;;4.75;1.20;;;;;;;12.35;100.00;98600.78;5080054;28;20282;-91
2022/08/05 03:09:18;;;;;;;9.85;1.40;;;;;;;12.33;100.00;98606.94;5064407;28;20124;-92
2022/08/05 03:11:43;;;;;;;6.30;1.17;;;;;;;12.30;100.00;98613.06;5096891;28;20024;-92
2022/08/05 03:14:09;;;;;;;10.93;1.60;;;;;;;12.38;100.00;98608.56;5066411;28;20081;-92
2022/08/05 03:16:35;;;;;;;10.52;1.35;;;;;;;12.28;100.00;98607.88;5100528;28;20087;-91
2022/08/05 03:19:01;;;;;;;9.70;1.35;;;;;;;12.33;100.00;98607.81;5066486;28;20036;-92
2022/08/05 03:21:27;;;;;;;7.05;1.20;;;;;;;12.46;100.00;98627.59;5063947;28;20072;-92
2022/08/05 03:23:53;;;;;;;8.65;1.17;;;;;;;12.10;100.00;98629.13;5067455;28;20381;-92
2022/08/05 03:26:22;;;;;;;6.43;1.20;;;;;;;12.17;100.00;98641.19;5065317;28;20032;-91
2022/08/05 03:28:47;;;;;;;6.10;1.27;;;;;;;12.17;100.00;98638.59;5066309;28;20032;-91
2022/08/05 03:31:13;;;;;;;8.10;1.30;;;;;;;12.11;100.00;98639.56;5061816;28;20028;-91
2022/08/05 03:33:40;;;;;;;11.35;1.55;;;;;;;12.23;100.00;98630.66;5065966;28;20077;-91
2022/08/05 03:36:05;;;;;;;9.15;1.25;;;;;;;12.22;100.00;98631.53;5062700;28;20117;-92
2022/08/05 03:38:31;;;;;;;7.75;1.52;;;;;;;12.11;100.00;98638.69;5066676;28;20123;-91
2022/08/05 03:40:56;;;;;;;6.82;1.20;;;;;;;12.09;100.00;98643.06;5069693;28;20048;-92
2022/08/05 03:43:25;;;;;;;8.15;1.80;;;;;;;12.07;100.00;98648.34;5078992;28;20082;-93
2022/08/05 03:45:54;;;;;;;9.80;1.70;;;;;;;12.28;100.00;98641.88;5067629;28;20027;-92
2022/08/05 03:48:22;;;;;;;10.15;1.25;;;;;;;12.05;100.00;98644.91;5067360;28;20032;-91
2022/08/05 03:50:58;;;;;;;8.00;1.30;;;;;;;11.90;100.00;98642.47;5068228;28;20070;-92
2022/08/05 03:53:53;;;;;;;4.82;1.10;;;;;;;11.98;100.00;98645.00;5068402;28;20060;-91
2022/08/05 03:56:41;;;;;;;8.38;1.40;;;;;;;11.82;100.00;98645.22;5070872;28;20055;-93
2022/08/05 03:59:12;;;;;;;7.60;1.33;;;;;;;11.77;100.00;98647.94;5064999;28;20029;-92
2022/08/05 04:01:43;;;;;;;5.45;1.23;;;;;;;11.68;100.00;98648.06;5081486;28;20115;-92
2022/08/05 04:04:11;;;;;;;9.50;1.40;;;;;;;11.79;100.00;98653.13;5067863;28;20037;-92
2022/08/05 04:06:37;;;;;;;8.45;1.30;;;;;;;11.66;100.00;98652.44;5067641;28;20031;-91
2022/08/05 04:09:04;;;;;;;8.95;1.25;;;;;;;11.55;100.00;98655.22;5100271;27;20352;-91
2022/08/05 04:11:31;;;;;;;8.30;1.23;;;;;;;11.76;100.00;98653.16;5065844;28;20028;-92
2022/08/05 04:13:58;;;;;;;8.27;1.20;;;;;;;11.55;100.00;98656.94;5066863;28;20028;-91
2022/08/05 04:16:24;;;;;;;6.47;1.15;;;;;;;11.72;100.00;98661.94;5066105;28;20041;-90
2022/08/05 04:18:50;;;;;;;9.48;1.35;;;;;;;11.55;100.00;98660.44;5102802;27;20086;-92
2022/08/05 04:21:15;;;;;;;8.75;1.58;;;;;;;11.76;100.00;98659.25;5069445;28;20513;-90
2022/08/05 04:23:42;;;;;;;8.48;1.40;;;;;;;11.57;100.00;98669.09;5072337;28;20140;-91
2022/08/05 04:26:08;;;;;;;7.10;1.40;;;;;;;11.57;100.00;98665.66;5073726;28;20016;-91
2022/08/05 04:28:33;;;;;;;6.90;1.30;;;;;;;11.63;100.00;98662.94;5065946;28;20060;-92
2022/08/05 04:30:59;;;;;;;4.95;1.13;;;;;;;11.69;100.00;98659.34;5069308;28;20025;-91
2022/08/05 04:33:25;;;;;;;9.45;1.48;;;;;;;11.71;100.00;98657.59;5070631;28;20572;-91
2022/08/05 04:35:51;;;;;;;5.47;1.27;;;;;;;11.77;100.00;98660.09;5074518;28;20040;-91
2022/08/05 04:38:20;;;;;;;10.18;1.38;;;;;;;11.55;100.00;98663.06;5071950;28;20028;-91
2022/08/05 04:40:48;;;;;;;9.00;1.20;;;;;;;11.51;100.00;98658.75;5073844;28;20491;-91
2022/08/05 04:43:13;;;;;;;11.20;1.55;;;;;;;12.13;100.00;98666.50;5071848;28;20872;-91
2022/08/05 04:45:39;;;;;;;7.65;1.45;;;;;;;11.64;100.00;98662.06;5070274;28;20059;-92
2022/08/05 04:48:13;;;;;;;7.78;1.40;;;;;;;11.71;100.00;98655.00;5076253;28;20095;-91
2022/08/05 04:50:44;;;;;;;9.27;1.38;;;;;;;11.74;100.00;98661.00;5103707;27;20036;-91
2022/08/05 04:53:11;;;;;;;8.35;1.48;;;;;;;11.91;100.00;98660.78;5083316;28;20039;-91
2022/08/05 04:55:38;;;;;;;7.00;1.45;;;;;;;12.04;100.00;98656.22;5086022;28;20091;-90
2022/08/05 04:58:06;;;;;;;9.00;1.30;;;;;;;12.05;100.00;98663.19;5073220;28;20028;-91
2022/08/05 05:00:32;;;;;;;8.07;1.60;;;;;;;12.17;100.00;98654.28;5069943;28;20033;-91
2022/08/05 05:02:58;;;;;;;8.77;1.48;;;;;;;12.15;100.00;98660.41;5069710;28;20028;-92
2022/08/05 05:05:24;;;;;;;7.63;1.27;;;;;;;12.19;100.00;98660.34;5069231;28;20027;-93
2022/08/05 05:07:50;;;;;;;7.20;1.48;;;;;;;12.18;100.00;98662.97;5072872;28;20036;-90
2022/08/05 05:10:15;;;;;;;8.80;1.42;;;;;;;12.15;100.00;98666.53;5067677;28;20025;-90
2022/08/05 05:12:41;;;;;;;6.32;1.30;;;;;;;12.37;100.00;98666.13;5097304;27;20036;-92
2022/08/05 05:15:08;;;;;;;10.73;1.50;;;;;;;12.24;100.00;98662.88;5078376;28;20069;-92
2022/08/05 05:17:38;;;;;;;11.90;1.45;;;;;;;12.34;100.00;98668.81;5062075;28;20029;-92
2022/08/05 05:20:05;;;;;;;7.47;1.67;;;;;;;12.29;100.00;98671.50;5064972;28;20404;-92
2022/08/05 05:22:31;;;;;;;8.45;1.30;;;;;;;12.42;100.00;98666.91;5066393;28;20862;-92
2022/08/05 05:24:56;;;;;;;8.43;1.40;;;;;;;12.56;100.00;98682.38;5060498;28;20036;-92
2022/08/05 05:27:22;;;;;;;6.30;1.30;;;;;;;12.45;100.00;98686.00;5060285;28;20029;-92
2022/08/05 05:29:47;;;;;;;7.75;1.30;;;;;;;12.49;100.00;98689.44;5065220;28;20536;-93
2022/08/05 05:32:13;;;;;;;8.15;1.30;;;;;;;12.48;100.00;98687.72;5065508;28;20520;-94
2022/08/05 05:34:38;;;;;;;10.85;1.40;;;;;;;12.48;100.00;98703.41;5072161;28;20028;-91
2022/08/05 05:37:04;;;;;;;7.30;1.30;;;;;;;12.77;100.00;98694.19;5064015;28;20033;-92
2022/08/05 05:39:29;;;;;;;4.72;0.90;;;;;;;12.58;100.00;98706.72;5068000;28;20100;-91
2022/08/05 05:41:55;;;;;;;9.48;1.40;;;;;;;12.64;100.00;98702.25;5069841;28;20530;-92
2022/08/05 05:44:20;;;;;;;10.38;1.33;;;;;;;12.51;100.00;98715.59;5062456;28;20516;-93
2022/08/05 05:46:46;;;;;;;7.82;1.35;;;;;;;13.41;100.00;98715.59;5067874;28;20483;-92
2022/08/05 05:49:11;;;;;;;7.32;1.10;;;;;;;12.94;100.00;98718.28;5064033;28;20135;-91
2022/08/05 05:51:38;;;;;;;4.18;1.00;;;;;;;13.29;100.00;98718.44;5065497;28;20039;-93
2022/08/05 05:54:03;;;;;;;3.83;0.70;;;;;;;12.95;100.00;98724.38;5070721;28;20044;-92
2022/08/05 05:56:30;;;;;;;5.80;0.88;;;;;;;13.13;100.00;98725.78;5066859;28;20031;-93
2022/08/05 05:58:55;;;;;;;5.60;0.88;;;;;;;12.60;100.00;98731.97;5075145;28;20032;-91
2022/08/05 06:04:43;;;;;;;4.90;1.10;;;;;;;12.63;100.00;98746.75;5057962;28;20031;-92
2022/08/05 06:07:09;;;;;;;4.53;0.73;;;;;;;12.43;100.00;98745.34;5060661;28;20353;-91
2022/08/05 06:09:34;;;;;;;8.95;1.10;;;;;;;12.35;100.00;98749.00;5059026;28;20389;-92
2022/08/05 06:12:00;;;;;;;4.78;0.73;;;;;;;12.38;100.00;98751.56;5076318;28;20045;-90
2022/08/05 06:14:26;;;;;;;4.57;0.85;;;;;;;12.50;100.00;98748.72;5057272;28;20032;-91
2022/08/05 06:16:51;;;;;;;4.28;0.70;;;;;;;12.69;100.00;98754.47;5059831;28;20033;-91
2022/08/05 06:19:17;;;;;;;4.22;0.88;;;;;;;12.39;100.00;98748.91;5061155;28;20036;-94
2022/08/05 06:21:44;;;;;;;5.55;0.93;;;;;;;12.57;100.00;98759.97;5076312;28;20527;-91
2022/08/05 06:24:10;;;;;;;2.55;0.55;;;;;;;12.65;100.00;98763.31;5062149;28;20021;-92
2022/08/05 06:26:35;;;;;;;4.38;0.75;;;;;;;12.41;100.00;98769.81;5091830;28;20043;-91
2022/08/05 06:29:01;;;;;;;3.70;0.98;;;;;;;12.61;100.00;98779.94;5076687;28;20029;-90
2022/08/05 06:31:26;;;;;;;3.78;0.77;;;;;;;12.47;100.00;98774.94;5067870;28;20140;-90
2022/08/05 06:33:55;;;;;;;6.10;0.85;;;;;;;12.22;100.00;98779.69;5075521;28;20032;-92
2022/08/05 06:36:20;;;;;;;4.75;0.90;;;;;;;12.18;100.00;98780.59;5055824;28;20025;-92
2022/08/05 06:38:46;;;;;;;3.30;0.90;;;;;;;11.94;100.00;98778.34;5067048;28;20462;-92
2022/08/05 06:41:11;;;;;;;3.97;0.85;;;;;;;11.78;100.00;98779.41;5067275;28;20027;-93
2022/08/05 06:43:37;;;;;;;5.68;1.10;;;;;;;11.69;100.00;98769.06;5081771;28;20048;-94
2022/08/05 06:46:02;;;;;;;5.20;0.80;;;;;;;12.11;100.00;98772.03;5078213;28;20495;-93
2022/08/05 06:48:28;;;;;;;4.65;1.00;;;;;;;12.07;100.00;98771.19;5071174;28;20055;-91
2022/08/05 06:50:54;;;;;;;6.45;1.20;;;;;;;12.21;100.00;98760.53;5064498;28;20380;-91
2022/08/05 06:53:19;;;;;;;7.75;1.23;;;;;;;12.25;100.00;98774.44;5070594;28;20028;-92
2022/08/05 06:55:45;;;;;;;3.40;0.73;;;;;;;12.48;100.00;98773.19;5067432;28;20128;-91
2022/08/05 06:58:10;;;;;;;3.95;0.85;;;;;;;12.77;100.00;98775.31;5103485;28;20032;-92
2022/08/05 07:00:36;;;;;;;3.65;0.80;;;;;;;12.91;100.00;98773.28;5065459;28;20021;-92
2022/08/05 07:03:01;;;;;;;2.85;0.70;;;;;;;12.90;100.00;98773.31;5068089;28;20115;-91
2022/08/05 07:05:27;;;;;;;4.15;0.90;;;;;;;13.05;100.00;98772.19;5071372;28;20098;-91
2022/08/05 07:07:52;;;;;;;4.95;1.02;;;;;;;13.25;100.00;98777.03;5073475;28;20053;-91
2022/08/05 07:10:18;;;;;;;2.75;0.60;;;;;;;13.19;100.00;98771.91;5067601;28;20520;-95
2022/08/05 07:18:11;;;;;;;4.85;1.10;;;;;;;12.90;100.00;98768.97;5059345;28;20085;-91
2022/08/05 07:20:42;;;;;;;4.47;0.90;;;;;;;12.68;100.00;98783.31;5057925;28;20044;-94
2022/08/05 07:23:07;;;;;;;6.60;1.20;;;;;;;12.59;100.00;98774.72;5068545;28;20028;-92
2022/08/05 07:25:33;;;;;;;4.32;0.90;;;;;;;12.70;100.00;98787.63;5105735;27;20418;-96
2022/08/05 07:27:58;;;;;;;4.80;0.88;;;;;;;12.55;100.00;98780.88;5074584;28;20025;-93
2022/08/05 07:30:24;;;;;;;5.75;1.02;;;;;;;12.61;100.00;98772.94;5108754;27;20040;-93
2022/08/05 07:32:50;;;;;;;2.88;0.93;;;;;;;12.61;100.00;98778.19;5092201;28;20025;-95
2022/08/05 07:35:25;;;;;;;6.15;1.10;;;;;;;12.82;100.00;98783.94;5104047;28;20020;-95
2022/08/05 07:37:52;;;;;;;4.07;0.90;;;;;;;12.87;100.00;98778.63;5086153;22;20053;-92
2022/08/05 07:40:17;;;;;;;6.15;1.25;;;;;;;12.89;100.00;98779.47;5065254;28;20074;-93
2022/08/05 07:42:43;;;;;;;5.55;0.90;;;;;;;13.12;100.00;98774.66;5064255;28;20672;-93
2022/08/05 07:45:09;;;;;;;8.68;1.40;;;;;;;13.29;100.00;98776.06;5063125;28;20106;-94
2022/08/05 07:47:34;;;;;;;5.13;1.10;;;;;;;13.53;100.00;98774.75;5071031;28;20115;-93
2022/08/05 07:50:00;;;;;;;5.15;0.82;;;;;;;13.64;100.00;98769.31;5059339;28;20534;-92
2022/08/05 07:52:25;;;;;;;1.85;0.57;;;;;;;13.88;100.00;98785.38;5054719;28;20024;-95
2022/08/05 07:54:50;;;;;;;4.05;0.90;;;;;;;13.84;100.00;98784.59;5066880;28;20046;-94
2022/08/05 07:57:16;;;;;;;3.10;0.98;;;;;;;14.02;100.00;98783.31;5072885;28;20393;-95
2022/08/05 07:59:41;;;;;;;5.68;0.95;;;;;;;14.20;100.00;98776.78;5064010;28;20549;-92
2022/08/05 08:02:09;;;;;;;4.32;1.17;;;;;;;14.08;100.00;98784.94;5057473;28;20036;-92
2022/08/05 08:04:35;;;;;;;3.42;0.80;;;;;;;13.58;100.00;98787.75;5062748;28;20396;-91
2022/08/05 08:07:01;;;;;;;6.53;1.08;;;;;;;13.73;100.00;98797.06;5058629;28;20035;-91
2022/08/05 08:09:27;;;;;;;4.25;0.82;;;;;;;13.71;100.00;98793.59;5064936;28;20124;-92
2022/08/05 08:11:52;;;;;;;5.00;1.08;;;;;;;14.24;100.00;98802.03;5058060;28;20029;-93
2022/08/05 08:14:18;;;;;;;4.97;0.90;;;;;;;13.90;100.00;98804.56;5076316;28;20399;-93
2022/08/05 08:16:44;;;;;;;5.28;1.00;;;;;;;14.16;100.00;98802.19;5085289;28;20424;-92
2022/08/05 08:19:09;;;;;;;5.45;1.10;;;;;;;14.62;100.00;98802.03;5054561;28;20041;-93
2022/08/05 08:21:35;;;;;;;3.97;1.00;;;;;;;14.21;100.00;98804.75;5052360;28;20028;-94
2022/08/05 08:24:01;;;;;;;3.75;1.10;;;;;;;14.48;100.00;98810.22;5065144;28;20105;-93
2022/08/05 08:26:26;;;;;;;6.03;1.10;;;;;;;14.36;100.00;98807.91;5061170;28;20879;-93
2022/08/05 08:28:52;;;;;;;2.22;0.80;;;;;;;14.70;100.00;98807.09;5053415;28;20054;-91
2022/08/05 08:31:17;;;;;;;4.05;1.05;;;;;;;14.62;100.00;98804.63;5059784;28;20016;-93
2022/08/05 08:33:44;;;;;;;6.30;1.02;;;;;;;14.78;100.00;98813.91;5079699;28;20155;-92
2022/08/05 08:36:09;;;;;;;3.97;1.00;;;;;;;14.75;100.00;98813.09;5058309;28;20046;-94
2022/08/05 08:38:35;;;;;;;4.80;1.10;;;;;;;14.61;100.00;98811.66;5063226;28;20040;-93
2022/08/05 08:41:05;;;;;;;5.30;1.10;;;;;;;14.53;100.00;98805.75;5063694;28;20082;-93
2022/08/05 08:43:32;;;;;;;4.22;0.93;;;;;;;14.79;100.00;98809.50;5065095;28;20028;-94
2022/08/05 08:46:02;;;;;;;3.50;0.80;;;;;;;14.85;100.00;98807.59;5066975;28;20675;-94
2022/08/05 08:48:30;;;;;;;7.78;1.02;;;;;;;14.67;100.00;98811.53;5069856;28;20092;-93
2022/08/05 08:50:57;;;;;;;4.65;1.08;;;;;;;14.94;100.00;98822.22;5055813;28;20484;-94
2022/08/05 08:53:24;;;;;;;5.78;1.05;;;;;;;14.54;100.00;98830.22;5060079;28;20024;-93
2022/08/05 08:55:50;;;;;;;8.30;1.23;;;;;;;14.92;100.00;98821.41;5065882;28;20071;-94
2022/08/05 08:58:16;;;;;;;4.05;0.80;;;;;;;15.70;100.00;98823.66;5064141;28;20090;-94
2022/08/05 09:00:42;;;;;;;6.50;1.00;;;;;;;15.02;100.00;98832.56;5071220;28;20028;-96
2022/08/05 09:03:10;;;;;;;3.90;1.05;;;;;;;14.42;100.00;98826.09;5065409;28;20400;-95
2022/08/05 09:05:35;;;;;;;6.13;1.13;;;;;;;14.58;100.00;98832.72;5068318;28;20102;-94
2022/08/05 09:08:01;;;;;;;3.42;0.88;;;;;;;14.70;100.00;98828.09;5070566;28;20033;-94
2022/08/05 09:10:27;;;;;;;4.25;0.95;;;;;;;14.32;100.00;98836.84;5054410;28;20056;-93
2022/08/05 09:12:53;;;;;;;3.90;0.77;;;;;;;15.06;100.00;98828.06;5063132;28;20139;-94
2022/08/05 09:15:18;;;;;;;5.47;0.82;;;;;;;15.54;100.00;98825.00;5068867;28;20087;-94
2022/08/05 09:17:44;;;;;;;4.95;1.08;;;;;;;15.07;100.00;98828.00;5062272;28;20510;-93
2022/08/05 09:20:11;;;;;;;4.35;0.90;;;;;;;14.93;100.00;98825.75;5056286;28;20040;-93
2022/08/05 09:23:05;;;;;;;4.53;0.90;;;;;;;15.19;100.00;98830.31;5062658;28;20032;-95
2022/08/05 09:25:31;;;;;;;4.38;0.90;;;;;;;15.17;100.00;98820.75;5068403;28;20052;-94
2022/08/05 09:28:08;;;;;;;4.03;0.80;;;;;;;15.12;100.00;98822.66;5063099;28;20036;-95
2022/08/05 09:30:33;;;;;;;5.45;1.00;;;;;;;14.79;100.00;98825.25;5060214;28;20182;-95
2022/08/05 09:33:03;;;;;;;5.53;0.90;;;;;;;14.99;100.00;98817.72;5059567;28;20548;-95
2022/08/05 09:35:29;;;;;;;6.97;1.10;;;;;;;15.00;100.00;98823.84;5062014;28;20028;-94
2022/08/05 09:37:55;;;;;;;7.45;1.00;;;;;;;15.16;100.00;98817.28;5060157;28;20101;-94
2022/08/05 09:40:29;;;;;;;9.30;1.00;;;;;;;15.06;100.00;98815.81;5057172;28;20028;-94
2022/08/05 09:42:55;;;;;;;6.38;0.80;;;;;;;14.82;100.00;98830.41;5058101;28;20036;-93
2022/08/05 09:45:33;;;;;;;5.60;1.40;;;;;;;15.24;100.00;98829.34;5061404;28;20476;-95
2022/08/05 09:47:59;;;;;;;5.63;1.30;;;;;;;15.16;100.00;98840.06;5055196;28;20561;-94
2022/08/05 09:50:40;;;;;;;3.05;1.00;;;;;;;15.33;100.00;98834.34;5064086;28;20024;-95
2022/08/05 09:53:05;;;;;;;5.90;1.40;;;;;;;15.39;100.00;98835.94;5054393;28;20028;-95
2022/08/05 09:55:35;;;;;;;3.78;0.82;;;;;;;15.62;100.00;98824.81;5086181;28;20039;-93
2022/08/05 09:58:09;;;;;;;6.60;1.30;;;;;;;15.31;100.00;98837.03;5057244;28;20027;-92
2022/08/05 10:00:35;;;;;;;4.43;1.00;;;;;;;15.25;100.00;98831.91;5062045;28;20514;-92
2022/08/05 10:03:08;;;;;;;4.70;1.02;;;;;;;15.49;100.00;98829.53;5070723;28;20032;-93
2022/08/05 10:05:34;;;;;;;;;;;;;;;15.42;100.00;98836.75;5057584;28;20036;-93
2022/08/05 10:08:04;;;;;;;7.82;1.25;;;;;;;15.41;100.00;98840.25;5066263;28;19962;-93
2022/08/05 10:10:37;;;;;;;5.22;1.20;;;;;;;16.03;100.00;98834.16;5065244;28;20048;-94
2022/08/05 10:13:05;;;;;;;5.15;1.20;;;;;;;16.67;100.00;98832.16;5075779;28;20155;-93
2022/08/05 10:15:37;;;;;;;6.53;1.20;;;;;;;16.21;100.00;98837.09;5049761;28;20147;-93
2022/08/05 10:18:05;;;;;;;6.40;1.40;;;;;;;16.49;100.00;98844.13;5057110;28;20125;-92
2022/08/05 10:20:33;;;;;;;6.43;1.58;;;;;;;16.09;100.00;98827.84;5059565;28;20043;-94
2022/08/05 10:23:00;;;;;;;7.40;1.80;;;;;;;16.80;100.00;98841.38;5072391;22;20050;-92
2022/08/05 10:25:27;;;;;;;9.30;1.40;;;;;;;18.20;100.00;98846.09;5017414;28;20099;-91
2022/08/05 10:27:53;;;;;;;5.35;1.00;;;;;;;18.89;100.00;98846.94;5032054;28;20124;-92
2022/08/05 10:30:20;;;;;;;4.68;0.90;;;;;;;17.19;100.00;98862.06;5018679;28;20037;-93
2022/08/05 10:32:46;;;;;;;4.70;0.90;;;;;;;18.08;100.00;98868.56;5018196;28;20598;-92
2022/08/05 10:35:13;;;;;;;5.28;1.13;;;;;;;16.55;100.00;98850.06;5021867;28;20084;-93
2022/08/05 10:37:40;;;;;;;5.30;1.00;;;;;;;16.41;100.00;98856.69;5021897;28;20072;-91
2022/08/05 10:40:15;;;;;;;5.50;0.90;;;;;;;15.95;100.00;98854.56;5013280;28;20143;-92
2022/08/05 10:42:45;;;;;;;6.05;1.10;;;;;;;18.02;100.00;98852.09;5012225;28;20033;-92
2022/08/05 10:45:14;;;;;;;4.60;1.00;;;;;;;19.32;100.00;98858.31;5006244;28;20386;-93
2022/08/05 10:47:43;;;;;;;3.78;0.93;;;;;;;18.21;100.00;98862.81;5019317;28;20111;-93
2022/08/05 10:50:14;;;;;;;7.45;1.10;;;;;;;18.08;100.00;98867.72;5017069;28;20048;-93
2022/08/05 10:52:58;;;;;;;3.10;0.82;;;;;;;18.80;100.00;98873.69;5015402;28;20067;-94
2022/08/05 10:55:25;;;;;;;4.55;0.90;;;;;;;18.33;100.00;98874.66;5014862;28;20033;-91
2022/08/05 10:58:10;;;;;;;5.78;1.05;;;;;;;17.61;100.00;98875.56;5012723;28;20367;-93
2022/08/05 11:00:36;;;;;;;4.28;0.90;;;;;;;19.05;100.00;98884.13;5015363;28;20029;-92
2022/08/05 11:03:05;;;;;;;4.85;0.85;;;;;;;18.42;100.00;98876.94;5012362;28;20037;-92
2022/08/05 11:05:31;;;;;;;7.03;1.17;;;;;;;17.93;100.00;98879.69;5028932;28;20037;-91
2022/08/05 11:08:06;;;;;;;4.28;1.13;;;;;;;18.21;100.00;98878.66;5014322;28;20064;-91
2022/08/05 11:10:35;;;;;;;4.05;1.15;;;;;;;19.09;100.00;98883.09;5019408;28;20607;-92
2022/08/05 11:13:03;;;;;;;5.90;0.90;;;;;;;18.62;100.00;98886.72;5019002;28;20569;-91
2022/08/05 11:15:42;;;;;;;4.70;0.93;;;;;;;18.92;100.00;98891.72;5022084;28;20029;-92
2022/08/05 11:18:13;;;;;;;3.78;0.98;;;;;;;18.79;100.00;98890.47;5017121;28;20033;-91
2022/08/05 11:20:50;;;;;;;3.88;1.00;;;;;;;18.85;100.00;98890.22;5018838;28;20037;-91
2022/08/05 11:23:33;;;;;;;3.63;0.95;;;;;;;18.75;100.00;98890.59;5016391;28;20138;-91
2022/08/05 11:26:07;;;;;;;4.00;0.90;;;;;;;18.96;100.00;98901.25;5015072;28;20033;-91
2022/08/05 11:28:32;;;;;;;6.57;1.00;;;;;;;20.19;100.00;98903.00;5035805;28;20107;-92
2022/08/05 11:31:07;;;;;;;7.63;1.30;;;;;;;18.81;100.00;98913.25;5019775;28;20747;-92
2022/08/05 11:33:32;;;;;;;8.73;1.10;;;;;;;19.56;100.00;98905.78;5026489;28;20455;-89
2022/08/05 11:36:00;;;;;;;5.55;1.15;;;;;;;20.09;100.00;98899.91;5024415;28;20029;-91
2022/08/05 11:38:37;;;;;;;6.45;1.40;;;;;;;19.90;100.00;98906.97;5018166;28;20041;-92